sensor_id;sensor_type;location;lat;lon;timestamp;P1;durP1;ratioP1;P2;durP2;ratioP2
48823;SDS011;34640;53.590;10.054;2022-09-09T00:02:50;58.88;;;34.65;;
48823;SDS011;34640;53.590;10.054;2022-09-09T00:05:52;55.13;;;33.30;;
48823;SDS011;34640;53.590;10.054;2022-09-09T00:08:52;64.03;;;35.72;;
48823;SDS011;34640;53.590;10.054;2022-09-09T00:11:52;62.72;;;36.47;;
48823;SDS011;34640;53.590;10.054;2022-09-09T00:14:49;68.55;;;36.60;;
48823;SDS011;34640;53.590;10.054;2022-09-09T00:17:45;72.22;;;37.78;;
48823;SDS011;34640;53.590;10.054;2022-09-09T00:20:45;74.90;;;38.42;;
48823;SDS011;34640;53.590;10.054;2022-09-09T00:23:47;77.03;;;37.92;;
48823;SDS011;34640;53.590;10.054;2022-09-09T00:26:42;70.03;;;35.85;;
48823;SDS011;34640;53.590;10.054;2022-09-09T00:29:41;73.57;;;37.78;;
48823;SDS011;34640;53.590;10.054;2022-09-09T00:32:36;74.55;;;36.78;;
48823;SDS011;34640;53.590;10.054;2022-09-09T00:35:29;71.20;;;37.58;;
48823;SDS011;34640;53.590;10.054;2022-09-09T00:38:25;63.38;;;33.95;;
48823;SDS011;34640;53.590;10.054;2022-09-09T00:41:29;71.57;;;35.65;;
48823;SDS011;34640;53.590;10.054;2022-09-09T00:44:31;77.55;;;36.60;;
48823;SDS011;34640;53.590;10.054;2022-09-09T00:47:29;76.38;;;34.55;;
48823;SDS011;34640;53.590;10.054;2022-09-09T00:50:35;69.10;;;31.47;;
48823;SDS011;34640;53.590;10.054;2022-09-09T00:53:38;79.15;;;32.88;;
48823;SDS011;34640;53.590;10.054;2022-09-09T00:56:36;65.45;;;32.88;;
48823;SDS011;34640;53.590;10.054;2022-09-09T00:59:35;73.20;;;31.98;;
48823;SDS011;34640;53.590;10.054;2022-09-09T01:02:39;60.00;;;29.40;;
48823;SDS011;34640;53.590;10.054;2022-09-09T01:05:40;59.80;;;29.17;;
48823;SDS011;34640;53.590;10.054;2022-09-09T01:08:41;58.65;;;30.95;;
48823;SDS011;34640;53.590;10.054;2022-09-09T01:11:46;49.33;;;27.83;;
48823;SDS011;34640;53.590;10.054;2022-09-09T01:14:45;51.90;;;26.77;;
48823;SDS011;34640;53.590;10.054;2022-09-09T01:17:46;47.45;;;26.50;;
48823;SDS011;34640;53.590;10.054;2022-09-09T01:20:44;43.83;;;24.95;;
48823;SDS011;34640;53.590;10.054;2022-09-09T01:23:49;47.65;;;23.15;;
48823;SDS011;34640;53.590;10.054;2022-09-09T01:26:57;46.17;;;23.50;;
48823;SDS011;34640;53.590;10.054;2022-09-09T01:29:52;51.00;;;22.75;;
48823;SDS011;34640;53.590;10.054;2022-09-09T01:32:44;38.20;;;23.33;;
48823;SDS011;34640;53.590;10.054;2022-09-09T01:35:40;51.22;;;22.95;;
48823;SDS011;34640;53.590;10.054;2022-09-09T01:38:36;44.00;;;23.60;;
48823;SDS011;34640;53.590;10.054;2022-09-09T01:41:28;38.40;;;22.30;;
48823;SDS011;34640;53.590;10.054;2022-09-09T01:44:22;47.05;;;22.95;;
48823;SDS011;34640;53.590;10.054;2022-09-09T01:47:14;43.72;;;23.70;;
48823;SDS011;34640;53.590;10.054;2022-09-09T01:50:08;50.17;;;23.45;;
48823;SDS011;34640;53.590;10.054;2022-09-09T01:53:03;49.08;;;22.60;;
48823;SDS011;34640;53.590;10.054;2022-09-09T01:55:59;44.83;;;24.33;;
48823;SDS011;34640;53.590;10.054;2022-09-09T01:59:03;41.53;;;23.10;;
48823;SDS011;34640;53.590;10.054;2022-09-09T02:02:11;43.78;;;23.98;;
48823;SDS011;34640;53.590;10.054;2022-09-09T02:05:11;51.92;;;24.15;;
48823;SDS011;34640;53.590;10.054;2022-09-09T02:08:14;53.53;;;23.40;;
48823;SDS011;34640;53.590;10.054;2022-09-09T02:11:11;45.38;;;23.58;;
48823;SDS011;34640;53.590;10.054;2022-09-09T02:14:06;48.80;;;22.85;;
48823;SDS011;34640;53.590;10.054;2022-09-09T02:17:06;52.35;;;23.63;;
48823;SDS011;34640;53.590;10.054;2022-09-09T02:20:06;63.65;;;24.95;;
48823;SDS011;34640;53.590;10.054;2022-09-09T02:23:01;72.57;;;25.83;;
48823;SDS011;34640;53.590;10.054;2022-09-09T02:25:53;58.40;;;24.30;;
48823;SDS011;34640;53.590;10.054;2022-09-09T02:28:49;53.50;;;25.65;;
48823;SDS011;34640;53.590;10.054;2022-09-09T02:31:42;48.22;;;24.02;;
48823;SDS011;34640;53.590;10.054;2022-09-09T02:34:39;44.75;;;24.85;;
48823;SDS011;34640;53.590;10.054;2022-09-09T02:37:36;46.08;;;23.77;;
48823;SDS011;34640;53.590;10.054;2022-09-09T02:40:29;47.10;;;23.80;;
48823;SDS011;34640;53.590;10.054;2022-09-09T02:43:21;52.65;;;25.30;;
48823;SDS011;34640;53.590;10.054;2022-09-09T02:46:19;42.35;;;23.73;;
48823;SDS011;34640;53.590;10.054;2022-09-09T02:49:21;45.17;;;24.30;;
48823;SDS011;34640;53.590;10.054;2022-09-09T02:52:19;48.33;;;25.10;;
48823;SDS011;34640;53.590;10.054;2022-09-09T02:55:20;45.10;;;23.10;;
48823;SDS011;34640;53.590;10.054;2022-09-09T02:58:16;49.50;;;22.88;;
48823;SDS011;34640;53.590;10.054;2022-09-09T03:01:09;40.17;;;23.08;;
48823;SDS011;34640;53.590;10.054;2022-09-09T03:04:01;41.70;;;22.15;;
48823;SDS011;34640;53.590;10.054;2022-09-09T03:06:55;36.67;;;21.33;;
48823;SDS011;34640;53.590;10.054;2022-09-09T03:09:52;38.58;;;20.38;;
48823;SDS011;34640;53.590;10.054;2022-09-09T03:12:46;37.40;;;20.60;;
48823;SDS011;34640;53.590;10.054;2022-09-09T03:15:38;33.38;;;19.08;;
48823;SDS011;34640;53.590;10.054;2022-09-09T03:18:30;33.05;;;19.88;;
48823;SDS011;34640;53.590;10.054;2022-09-09T03:21:22;38.22;;;20.30;;
48823;SDS011;34640;53.590;10.054;2022-09-09T03:24:14;31.17;;;19.02;;
48823;SDS011;34640;53.590;10.054;2022-09-09T03:27:06;34.08;;;19.95;;
48823;SDS011;34640;53.590;10.054;2022-09-09T03:29:59;32.58;;;20.13;;
48823;SDS011;34640;53.590;10.054;2022-09-09T03:32:54;35.08;;;19.25;;
48823;SDS011;34640;53.590;10.054;2022-09-09T03:35:46;30.50;;;18.77;;
48823;SDS011;34640;53.590;10.054;2022-09-09T03:38:38;28.85;;;18.45;;
48823;SDS011;34640;53.590;10.054;2022-09-09T03:41:30;30.02;;;17.58;;
48823;SDS011;34640;53.590;10.054;2022-09-09T03:44:22;28.90;;;18.08;;
48823;SDS011;34640;53.590;10.054;2022-09-09T03:47:15;34.13;;;18.95;;
48823;SDS011;34640;53.590;10.054;2022-09-09T03:50:07;29.60;;;17.23;;
48823;SDS011;34640;53.590;10.054;2022-09-09T03:53:00;28.63;;;18.63;;
48823;SDS011;34640;53.590;10.054;2022-09-09T03:55:53;30.23;;;18.52;;
48823;SDS011;34640;53.590;10.054;2022-09-09T03:58:46;31.25;;;18.17;;
48823;SDS011;34640;53.590;10.054;2022-09-09T04:01:37;34.65;;;19.70;;
48823;SDS011;34640;53.590;10.054;2022-09-09T04:04:31;34.15;;;17.77;;
48823;SDS011;34640;53.590;10.054;2022-09-09T04:07:23;29.48;;;18.20;;
48823;SDS011;34640;53.590;10.054;2022-09-09T04:10:15;33.20;;;16.88;;
48823;SDS011;34640;53.590;10.054;2022-09-09T04:13:07;28.88;;;17.52;;
48823;SDS011;34640;53.590;10.054;2022-09-09T04:16:00;27.42;;;16.88;;
48823;SDS011;34640;53.590;10.054;2022-09-09T04:18:54;24.52;;;16.05;;
48823;SDS011;34640;53.590;10.054;2022-09-09T04:21:47;26.45;;;15.27;;
48823;SDS011;34640;53.590;10.054;2022-09-09T04:24:41;27.70;;;16.08;;
48823;SDS011;34640;53.590;10.054;2022-09-09T04:27:38;28.42;;;17.25;;
48823;SDS011;34640;53.590;10.054;2022-09-09T04:30:30;27.88;;;16.38;;
48823;SDS011;34640;53.590;10.054;2022-09-09T04:33:23;29.75;;;17.63;;
48823;SDS011;34640;53.590;10.054;2022-09-09T04:36:16;28.67;;;16.77;;
48823;SDS011;34640;53.590;10.054;2022-09-09T04:39:11;26.45;;;16.63;;
48823;SDS011;34640;53.590;10.054;2022-09-09T04:42:02;28.15;;;14.80;;
48823;SDS011;34640;53.590;10.054;2022-09-09T04:44:54;28.42;;;15.00;;
48823;SDS011;34640;53.590;10.054;2022-09-09T04:47:47;23.70;;;15.02;;
48823;SDS011;34640;53.590;10.054;2022-09-09T04:50:39;23.25;;;14.98;;
48823;SDS011;34640;53.590;10.054;2022-09-09T04:53:31;25.73;;;15.25;;
48823;SDS011;34640;53.590;10.054;2022-09-09T04:56:25;27.08;;;15.07;;
48823;SDS011;34640;53.590;10.054;2022-09-09T04:59:18;22.33;;;15.32;;
48823;SDS011;34640;53.590;10.054;2022-09-09T05:02:10;29.17;;;14.77;;
48823;SDS011;34640;53.590;10.054;2022-09-09T05:05:02;26.10;;;15.32;;
48823;SDS011;34640;53.590;10.054;2022-09-09T05:07:54;24.10;;;14.73;;
48823;SDS011;34640;53.590;10.054;2022-09-09T05:10:51;26.13;;;14.98;;
48823;SDS011;34640;53.590;10.054;2022-09-09T05:13:46;23.50;;;13.98;;
48823;SDS011;34640;53.590;10.054;2022-09-09T05:16:37;24.08;;;14.45;;
48823;SDS011;34640;53.590;10.054;2022-09-09T05:19:29;22.58;;;14.68;;
48823;SDS011;34640;53.590;10.054;2022-09-09T05:22:20;28.30;;;15.23;;
48823;SDS011;34640;53.590;10.054;2022-09-09T05:25:13;23.38;;;14.50;;
48823;SDS011;34640;53.590;10.054;2022-09-09T05:28:04;22.27;;;14.40;;
48823;SDS011;34640;53.590;10.054;2022-09-09T05:30:59;26.67;;;14.43;;
48823;SDS011;34640;53.590;10.054;2022-09-09T05:33:53;21.80;;;13.98;;
48823;SDS011;34640;53.590;10.054;2022-09-09T05:36:45;20.25;;;13.60;;
48823;SDS011;34640;53.590;10.054;2022-09-09T05:39:37;19.45;;;12.32;;
48823;SDS011;34640;53.590;10.054;2022-09-09T05:42:30;23.10;;;13.65;;
48823;SDS011;34640;53.590;10.054;2022-09-09T05:45:22;19.90;;;12.77;;
48823;SDS011;34640;53.590;10.054;2022-09-09T05:48:16;17.73;;;12.77;;
48823;SDS011;34640;53.590;10.054;2022-09-09T05:51:08;20.27;;;12.77;;
48823;SDS011;34640;53.590;10.054;2022-09-09T05:54:02;18.88;;;13.10;;
48823;SDS011;34640;53.590;10.054;2022-09-09T05:56:54;20.52;;;13.98;;
48823;SDS011;34640;53.590;10.054;2022-09-09T05:59:46;22.02;;;11.68;;
48823;SDS011;34640;53.590;10.054;2022-09-09T06:02:38;14.95;;;10.98;;
48823;SDS011;34640;53.590;10.054;2022-09-09T06:05:32;19.13;;;11.13;;
48823;SDS011;34640;53.590;10.054;2022-09-09T06:08:25;16.77;;;11.35;;
48823;SDS011;34640;53.590;10.054;2022-09-09T06:11:18;17.00;;;11.27;;
48823;SDS011;34640;53.590;10.054;2022-09-09T06:14:11;17.70;;;11.43;;
48823;SDS011;34640;53.590;10.054;2022-09-09T06:17:02;18.50;;;10.95;;
48823;SDS011;34640;53.590;10.054;2022-09-09T06:19:55;17.40;;;9.75;;
48823;SDS011;34640;53.590;10.054;2022-09-09T06:22:49;17.17;;;10.23;;
48823;SDS011;34640;53.590;10.054;2022-09-09T06:25:47;18.88;;;9.65;;
48823;SDS011;34640;53.590;10.054;2022-09-09T06:28:39;16.13;;;9.60;;
48823;SDS011;34640;53.590;10.054;2022-09-09T06:31:33;14.57;;;8.80;;
48823;SDS011;34640;53.590;10.054;2022-09-09T06:34:27;17.38;;;8.43;;
48823;SDS011;34640;53.590;10.054;2022-09-09T06:37:19;17.25;;;9.07;;
48823;SDS011;34640;53.590;10.054;2022-09-09T06:40:12;12.10;;;8.23;;
48823;SDS011;34640;53.590;10.054;2022-09-09T06:43:04;12.40;;;7.72;;
48823;SDS011;34640;53.590;10.054;2022-09-09T06:45:56;18.73;;;9.38;;
48823;SDS011;34640;53.590;10.054;2022-09-09T06:48:49;13.90;;;7.57;;
48823;SDS011;34640;53.590;10.054;2022-09-09T06:51:41;14.90;;;7.15;;
48823;SDS011;34640;53.590;10.054;2022-09-09T06:54:33;15.80;;;7.38;;
48823;SDS011;34640;53.590;10.054;2022-09-09T06:57:28;16.13;;;7.22;;
48823;SDS011;34640;53.590;10.054;2022-09-09T07:00:27;12.45;;;7.43;;
48823;SDS011;34640;53.590;10.054;2022-09-09T07:03:20;12.80;;;7.63;;
48823;SDS011;34640;53.590;10.054;2022-09-09T07:06:12;15.88;;;7.38;;
48823;SDS011;34640;53.590;10.054;2022-09-09T07:09:07;12.88;;;7.43;;
48823;SDS011;34640;53.590;10.054;2022-09-09T07:12:01;11.30;;;6.93;;
48823;SDS011;34640;53.590;10.054;2022-09-09T07:14:55;14.95;;;7.35;;
48823;SDS011;34640;53.590;10.054;2022-09-09T07:17:46;8.98;;;6.28;;
48823;SDS011;34640;53.590;10.054;2022-09-09T07:20:38;10.75;;;6.43;;
48823;SDS011;34640;53.590;10.054;2022-09-09T07:23:30;10.10;;;6.30;;
48823;SDS011;34640;53.590;10.054;2022-09-09T07:26:26;12.57;;;5.70;;
48823;SDS011;34640;53.590;10.054;2022-09-09T07:29:19;10.85;;;5.30;;
48823;SDS011;34640;53.590;10.054;2022-09-09T07:32:12;11.40;;;5.63;;
48823;SDS011;34640;53.590;10.054;2022-09-09T07:35:04;10.85;;;6.15;;
48823;SDS011;34640;53.590;10.054;2022-09-09T07:37:57;9.93;;;5.20;;
48823;SDS011;34640;53.590;10.054;2022-09-09T07:40:48;12.82;;;5.93;;
48823;SDS011;34640;53.590;10.054;2022-09-09T07:43:40;10.35;;;5.68;;
48823;SDS011;34640;53.590;10.054;2022-09-09T07:46:33;9.25;;;5.32;;
48823;SDS011;34640;53.590;10.054;2022-09-09T07:49:27;8.80;;;5.18;;
48823;SDS011;34640;53.590;10.054;2022-09-09T07:52:22;9.55;;;5.57;;
48823;SDS011;34640;53.590;10.054;2022-09-09T07:55:14;7.05;;;4.00;;
48823;SDS011;34640;53.590;10.054;2022-09-09T07:58:05;6.78;;;4.20;;
48823;SDS011;34640;53.590;10.054;2022-09-09T08:00:58;9.20;;;4.40;;
48823;SDS011;34640;53.590;10.054;2022-09-09T08:03:52;10.23;;;4.80;;
48823;SDS011;34640;53.590;10.054;2022-09-09T08:06:48;9.18;;;4.80;;
48823;SDS011;34640;53.590;10.054;2022-09-09T08:09:40;8.75;;;5.00;;
48823;SDS011;34640;53.590;10.054;2022-09-09T08:12:32;8.38;;;4.60;;
48823;SDS011;34640;53.590;10.054;2022-09-09T08:15:25;11.82;;;4.88;;
48823;SDS011;34640;53.590;10.054;2022-09-09T08:18:17;7.15;;;4.47;;
48823;SDS011;34640;53.590;10.054;2022-09-09T08:21:10;8.48;;;4.60;;
48823;SDS011;34640;53.590;10.054;2022-09-09T08:24:05;11.30;;;5.07;;
48823;SDS011;34640;53.590;10.054;2022-09-09T08:26:57;12.55;;;4.30;;
48823;SDS011;34640;53.590;10.054;2022-09-09T08:29:49;8.63;;;4.30;;
48823;SDS011;34640;53.590;10.054;2022-09-09T08:32:41;9.52;;;4.43;;
48823;SDS011;34640;53.590;10.054;2022-09-09T08:35:36;17.42;;;5.43;;
48823;SDS011;34640;53.590;10.054;2022-09-09T08:38:27;7.35;;;3.78;;
48823;SDS011;34640;53.590;10.054;2022-09-09T08:44:39;10.45;;;3.88;;
48823;SDS011;34640;53.590;10.054;2022-09-09T08:47:43;9.95;;;3.90;;
48823;SDS011;34640;53.590;10.054;2022-09-09T08:50:40;15.75;;;4.38;;
48823;SDS011;34640;53.590;10.054;2022-09-09T08:53:35;9.73;;;4.18;;
48823;SDS011;34640;53.590;10.054;2022-09-09T08:56:32;7.55;;;4.80;;
48823;SDS011;34640;53.590;10.054;2022-09-09T08:59:26;10.02;;;4.00;;
48823;SDS011;34640;53.590;10.054;2022-09-09T09:02:18;8.63;;;4.05;;
48823;SDS011;34640;53.590;10.054;2022-09-09T09:08:12;10.18;;;3.83;;
48823;SDS011;34640;53.590;10.054;2022-09-09T09:11:12;13.05;;;4.22;;
48823;SDS011;34640;53.590;10.054;2022-09-09T09:14:07;8.93;;;3.72;;
48823;SDS011;34640;53.590;10.054;2022-09-09T09:17:06;5.80;;;3.13;;
48823;SDS011;34640;53.590;10.054;2022-09-09T09:20:01;13.45;;;3.78;;
48823;SDS011;34640;53.590;10.054;2022-09-09T09:22:56;9.63;;;3.35;;
48823;SDS011;34640;53.590;10.054;2022-09-09T09:25:55;8.63;;;3.38;;
48823;SDS011;34640;53.590;10.054;2022-09-09T09:28:51;6.65;;;3.15;;
48823;SDS011;34640;53.590;10.054;2022-09-09T09:31:48;9.90;;;3.53;;
48823;SDS011;34640;53.590;10.054;2022-09-09T09:34:49;9.85;;;2.70;;
48823;SDS011;34640;53.590;10.054;2022-09-09T09:37:42;8.00;;;2.65;;
48823;SDS011;34640;53.590;10.054;2022-09-09T09:41:13;6.90;;;2.90;;
48823;SDS011;34640;53.590;10.054;2022-09-09T09:44:25;6.38;;;2.75;;
48823;SDS011;34640;53.590;10.054;2022-09-09T09:47:37;6.65;;;2.40;;
48823;SDS011;34640;53.590;10.054;2022-09-09T09:50:51;9.05;;;2.40;;
48823;SDS011;34640;53.590;10.054;2022-09-09T09:54:07;3.42;;;1.52;;
48823;SDS011;34640;53.590;10.054;2022-09-09T09:57:25;5.78;;;2.00;;
48823;SDS011;34640;53.590;10.054;2022-09-09T10:00:37;8.68;;;2.95;;
48823;SDS011;34640;53.590;10.054;2022-09-09T10:03:59;4.88;;;2.47;;
48823;SDS011;34640;53.590;10.054;2022-09-09T10:07:13;8.23;;;2.60;;
48823;SDS011;34640;53.590;10.054;2022-09-09T10:10:32;3.20;;;2.08;;
48823;SDS011;34640;53.590;10.054;2022-09-09T10:13:57;6.18;;;2.13;;
48823;SDS011;34640;53.590;10.054;2022-09-09T10:17:01;4.45;;;1.80;;
48823;SDS011;34640;53.590;10.054;2022-09-09T10:20:07;5.10;;;1.73;;
48823;SDS011;34640;53.590;10.054;2022-09-09T10:23:13;6.47;;;1.60;;
48823;SDS011;34640;53.590;10.054;2022-09-09T10:26:25;4.97;;;1.50;;
48823;SDS011;34640;53.590;10.054;2022-09-09T10:29:30;7.72;;;1.85;;
48823;SDS011;34640;53.590;10.054;2022-09-09T10:32:56;5.68;;;1.60;;
48823;SDS011;34640;53.590;10.054;2022-09-09T10:35:58;4.03;;;1.40;;
48823;SDS011;34640;53.590;10.054;2022-09-09T10:39:22;3.05;;;1.38;;
48823;SDS011;34640;53.590;10.054;2022-09-09T10:42:46;5.50;;;1.45;;
48823;SDS011;34640;53.590;10.054;2022-09-09T10:45:54;6.00;;;1.73;;
48823;SDS011;34640;53.590;10.054;2022-09-09T10:49:14;4.40;;;1.60;;
48823;SDS011;34640;53.590;10.054;2022-09-09T10:52:30;6.45;;;1.45;;
48823;SDS011;34640;53.590;10.054;2022-09-09T10:55:51;4.43;;;1.50;;
48823;SDS011;34640;53.590;10.054;2022-09-09T10:59:02;3.67;;;1.00;;
48823;SDS011;34640;53.590;10.054;2022-09-09T11:02:13;3.65;;;1.08;;
48823;SDS011;34640;53.590;10.054;2022-09-09T11:05:30;3.25;;;1.00;;
48823;SDS011;34640;53.590;10.054;2022-09-09T11:08:45;3.47;;;1.13;;
48823;SDS011;34640;53.590;10.054;2022-09-09T11:12:06;5.05;;;1.40;;
48823;SDS011;34640;53.590;10.054;2022-09-09T11:15:23;6.03;;;1.50;;
48823;SDS011;34640;53.590;10.054;2022-09-09T11:18:41;6.20;;;1.33;;
48823;SDS011;34640;53.590;10.054;2022-09-09T11:21:55;3.42;;;1.25;;
48823;SDS011;34640;53.590;10.054;2022-09-09T11:25:08;4.10;;;1.50;;
48823;SDS011;34640;53.590;10.054;2022-09-09T11:28:31;8.98;;;1.35;;
48823;SDS011;34640;53.590;10.054;2022-09-09T11:31:54;6.13;;;1.30;;
48823;SDS011;34640;53.590;10.054;2022-09-09T11:35:19;3.22;;;1.15;;
48823;SDS011;34640;53.590;10.054;2022-09-09T11:38:42;2.83;;;1.33;;
48823;SDS011;34640;53.590;10.054;2022-09-09T11:42:04;6.68;;;1.58;;
48823;SDS011;34640;53.590;10.054;2022-09-09T11:45:21;4.82;;;1.50;;
48823;SDS011;34640;53.590;10.054;2022-09-09T11:48:37;8.75;;;1.45;;
48823;SDS011;34640;53.590;10.054;2022-09-09T11:51:52;4.18;;;1.40;;
48823;SDS011;34640;53.590;10.054;2022-09-09T11:55:08;5.22;;;1.70;;
48823;SDS011;34640;53.590;10.054;2022-09-09T11:58:19;2.92;;;1.23;;
48823;SDS011;34640;53.590;10.054;2022-09-09T12:01:37;2.55;;;1.30;;
48823;SDS011;34640;53.590;10.054;2022-09-09T12:04:54;5.10;;;1.38;;
48823;SDS011;34640;53.590;10.054;2022-09-09T12:08:08;7.10;;;1.30;;
48823;SDS011;34640;53.590;10.054;2022-09-09T12:11:25;3.55;;;1.35;;
48823;SDS011;34640;53.590;10.054;2022-09-09T12:14:37;5.82;;;1.70;;
48823;SDS011;34640;53.590;10.054;2022-09-09T12:17:54;4.97;;;1.50;;
48823;SDS011;34640;53.590;10.054;2022-09-09T12:21:12;7.78;;;1.25;;
48823;SDS011;34640;53.590;10.054;2022-09-09T12:24:32;4.22;;;1.70;;
48823;SDS011;34640;53.590;10.054;2022-09-09T12:27:55;3.03;;;1.20;;
48823;SDS011;34640;53.590;10.054;2022-09-09T12:31:12;4.97;;;1.15;;
48823;SDS011;34640;53.590;10.054;2022-09-09T12:34:34;5.78;;;1.65;;
48823;SDS011;34640;53.590;10.054;2022-09-09T12:37:49;4.03;;;1.23;;
48823;SDS011;34640;53.590;10.054;2022-09-09T12:41:02;6.72;;;1.40;;
48823;SDS011;34640;53.590;10.054;2022-09-09T12:44:12;3.20;;;1.27;;
48823;SDS011;34640;53.590;10.054;2022-09-09T12:47:29;7.22;;;1.77;;
48823;SDS011;34640;53.590;10.054;2022-09-09T12:50:51;10.27;;;1.98;;
48823;SDS011;34640;53.590;10.054;2022-09-09T12:54:05;6.47;;;1.65;;
48823;SDS011;34640;53.590;10.054;2022-09-09T12:57:15;3.30;;;1.15;;
48823;SDS011;34640;53.590;10.054;2022-09-09T13:00:26;5.10;;;1.85;;
48823;SDS011;34640;53.590;10.054;2022-09-09T13:03:42;3.40;;;1.38;;
48823;SDS011;34640;53.590;10.054;2022-09-09T13:10:22;7.88;;;3.25;;
48823;SDS011;34640;53.590;10.054;2022-09-09T13:13:51;6.63;;;1.83;;
48823;SDS011;34640;53.590;10.054;2022-09-09T13:17:03;7.53;;;2.40;;
48823;SDS011;34640;53.590;10.054;2022-09-09T13:20:16;5.68;;;2.03;;
48823;SDS011;34640;53.590;10.054;2022-09-09T13:23:30;4.57;;;1.67;;
48823;SDS011;34640;53.590;10.054;2022-09-09T13:26:43;5.93;;;1.80;;
48823;SDS011;34640;53.590;10.054;2022-09-09T13:30:18;6.22;;;1.75;;
48823;SDS011;34640;53.590;10.054;2022-09-09T13:33:33;5.43;;;1.50;;
48823;SDS011;34640;53.590;10.054;2022-09-09T13:36:46;5.60;;;2.30;;
48823;SDS011;34640;53.590;10.054;2022-09-09T13:39:59;6.13;;;1.70;;
48823;SDS011;34640;53.590;10.054;2022-09-09T13:43:13;5.22;;;2.15;;
48823;SDS011;34640;53.590;10.054;2022-09-09T13:46:32;5.97;;;2.50;;
48823;SDS011;34640;53.590;10.054;2022-09-09T13:49:44;7.13;;;3.30;;
48823;SDS011;34640;53.590;10.054;2022-09-09T13:52:56;9.73;;;2.35;;
48823;SDS011;34640;53.590;10.054;2022-09-09T13:56:09;9.32;;;2.55;;
48823;SDS011;34640;53.590;10.054;2022-09-09T13:59:19;11.95;;;3.53;;
48823;SDS011;34640;53.590;10.054;2022-09-09T14:02:30;10.48;;;3.08;;
48823;SDS011;34640;53.590;10.054;2022-09-09T14:05:41;10.90;;;3.75;;
48823;SDS011;34640;53.590;10.054;2022-09-09T14:08:51;10.35;;;3.30;;
48823;SDS011;34640;53.590;10.054;2022-09-09T14:12:05;13.80;;;3.53;;
48823;SDS011;34640;53.590;10.054;2022-09-09T14:15:15;10.73;;;3.65;;
48823;SDS011;34640;53.590;10.054;2022-09-09T14:18:26;8.32;;;3.28;;
48823;SDS011;34640;53.590;10.054;2022-09-09T14:21:36;8.63;;;4.00;;
48823;SDS011;34640;53.590;10.054;2022-09-09T14:24:46;9.13;;;3.63;;
48823;SDS011;34640;53.590;10.054;2022-09-09T14:27:57;9.23;;;3.47;;
48823;SDS011;34640;53.590;10.054;2022-09-09T14:31:08;5.45;;;3.55;;
48823;SDS011;34640;53.590;10.054;2022-09-09T14:34:19;11.80;;;3.38;;
48823;SDS011;34640;53.590;10.054;2022-09-09T14:37:29;10.82;;;4.15;;
48823;SDS011;34640;53.590;10.054;2022-09-09T14:40:39;8.93;;;4.13;;
48823;SDS011;34640;53.590;10.054;2022-09-09T14:43:51;6.63;;;2.53;;
48823;SDS011;34640;53.590;10.054;2022-09-09T14:47:02;6.97;;;2.40;;
48823;SDS011;34640;53.590;10.054;2022-09-09T14:50:12;6.35;;;2.22;;
48823;SDS011;34640;53.590;10.054;2022-09-09T14:53:23;5.03;;;2.30;;
48823;SDS011;34640;53.590;10.054;2022-09-09T14:56:33;5.63;;;2.63;;
48823;SDS011;34640;53.590;10.054;2022-09-09T14:59:45;10.07;;;2.65;;
48823;SDS011;34640;53.590;10.054;2022-09-09T15:02:59;8.18;;;3.33;;
48823;SDS011;34640;53.590;10.054;2022-09-09T15:06:10;8.63;;;3.17;;
48823;SDS011;34640;53.590;10.054;2022-09-09T15:09:21;6.93;;;3.35;;
48823;SDS011;34640;53.590;10.054;2022-09-09T15:12:31;7.43;;;3.10;;
48823;SDS011;34640;53.590;10.054;2022-09-09T15:15:46;8.93;;;3.50;;
48823;SDS011;34640;53.590;10.054;2022-09-09T15:18:59;13.60;;;3.38;;
48823;SDS011;34640;53.590;10.054;2022-09-09T15:22:11;6.15;;;2.60;;
48823;SDS011;34640;53.590;10.054;2022-09-09T15:25:22;6.30;;;2.42;;
48823;SDS011;34640;53.590;10.054;2022-09-09T15:28:32;9.95;;;2.58;;
48823;SDS011;34640;53.590;10.054;2022-09-09T15:31:47;5.22;;;2.30;;
48823;SDS011;34640;53.590;10.054;2022-09-09T15:34:57;4.82;;;2.40;;
48823;SDS011;34640;53.590;10.054;2022-09-09T15:38:07;9.55;;;2.65;;
48823;SDS011;34640;53.590;10.054;2022-09-09T15:41:18;9.35;;;2.30;;
48823;SDS011;34640;53.590;10.054;2022-09-09T15:44:29;5.88;;;2.13;;
48823;SDS011;34640;53.590;10.054;2022-09-09T15:47:49;3.78;;;1.90;;
48823;SDS011;34640;53.590;10.054;2022-09-09T15:51:03;9.68;;;2.40;;
48823;SDS011;34640;53.590;10.054;2022-09-09T15:54:34;6.35;;;1.80;;
48823;SDS011;34640;53.590;10.054;2022-09-09T15:57:47;4.43;;;2.08;;
48823;SDS011;34640;53.590;10.054;2022-09-09T16:01:01;6.25;;;2.00;;
48823;SDS011;34640;53.590;10.054;2022-09-09T16:04:17;5.13;;;2.10;;
48823;SDS011;34640;53.590;10.054;2022-09-09T16:07:32;6.72;;;2.15;;
48823;SDS011;34640;53.590;10.054;2022-09-09T16:10:44;6.85;;;2.40;;
48823;SDS011;34640;53.590;10.054;2022-09-09T16:13:54;4.85;;;2.35;;
48823;SDS011;34640;53.590;10.054;2022-09-09T16:17:05;9.55;;;2.45;;
48823;SDS011;34640;53.590;10.054;2022-09-09T16:20:17;6.18;;;1.75;;
48823;SDS011;34640;53.590;10.054;2022-09-09T16:23:29;6.53;;;2.22;;
48823;SDS011;34640;53.590;10.054;2022-09-09T16:26:39;8.40;;;2.30;;
48823;SDS011;34640;53.590;10.054;2022-09-09T16:29:53;5.78;;;1.92;;
48823;SDS011;34640;53.590;10.054;2022-09-09T16:33:03;4.18;;;1.83;;
48823;SDS011;34640;53.590;10.054;2022-09-09T16:36:15;4.60;;;2.10;;
48823;SDS011;34640;53.590;10.054;2022-09-09T16:39:27;5.75;;;2.03;;
48823;SDS011;34640;53.590;10.054;2022-09-09T16:42:38;7.50;;;2.35;;
48823;SDS011;34640;53.590;10.054;2022-09-09T16:45:48;8.95;;;2.80;;
48823;SDS011;34640;53.590;10.054;2022-09-09T16:48:59;12.05;;;2.92;;
48823;SDS011;34640;53.590;10.054;2022-09-09T16:52:12;5.55;;;1.80;;
48823;SDS011;34640;53.590;10.054;2022-09-09T16:55:28;4.78;;;1.98;;
48823;SDS011;34640;53.590;10.054;2022-09-09T16:58:38;7.10;;;3.85;;
48823;SDS011;34640;53.590;10.054;2022-09-09T17:01:49;5.15;;;2.00;;
48823;SDS011;34640;53.590;10.054;2022-09-09T17:05:01;17.77;;;10.98;;
48823;SDS011;34640;53.590;10.054;2022-09-09T17:08:12;6.32;;;4.38;;
48823;SDS011;34640;53.590;10.054;2022-09-09T17:11:23;5.60;;;2.20;;
48823;SDS011;34640;53.590;10.054;2022-09-09T17:14:34;6.22;;;2.28;;
48823;SDS011;34640;53.590;10.054;2022-09-09T17:17:44;5.75;;;2.10;;
48823;SDS011;34640;53.590;10.054;2022-09-09T17:21:01;4.47;;;1.73;;
48823;SDS011;34640;53.590;10.054;2022-09-09T17:24:14;6.10;;;1.80;;
48823;SDS011;34640;53.590;10.054;2022-09-09T17:27:24;5.38;;;2.20;;
48823;SDS011;34640;53.590;10.054;2022-09-09T17:30:35;6.80;;;2.22;;
48823;SDS011;34640;53.590;10.054;2022-09-09T17:33:47;5.47;;;2.25;;
48823;SDS011;34640;53.590;10.054;2022-09-09T17:37:01;5.45;;;2.33;;
48823;SDS011;34640;53.590;10.054;2022-09-09T17:40:15;9.25;;;2.80;;
48823;SDS011;34640;53.590;10.054;2022-09-09T17:43:26;8.63;;;2.85;;
48823;SDS011;34640;53.590;10.054;2022-09-09T17:46:37;6.95;;;2.58;;
48823;SDS011;34640;53.590;10.054;2022-09-09T17:49:49;7.85;;;2.80;;
48823;SDS011;34640;53.590;10.054;2022-09-09T17:52:59;9.30;;;4.43;;
48823;SDS011;34640;53.590;10.054;2022-09-09T17:56:12;7.18;;;3.45;;
48823;SDS011;34640;53.590;10.054;2022-09-09T17:59:24;7.47;;;3.55;;
48823;SDS011;34640;53.590;10.054;2022-09-09T18:02:35;9.52;;;4.00;;
48823;SDS011;34640;53.590;10.054;2022-09-09T18:05:46;7.68;;;4.25;;